createdAt,value
2017-09-11T00:00:25.092Z,0
2017-09-11T00:01:35.480Z,0
2017-09-11T00:02:45.822Z,0
2017-09-11T00:03:56.173Z,0
2017-09-11T00:05:06.518Z,0
2017-09-11T00:06:16.881Z,0
2017-09-11T00:07:27.262Z,0
2017-09-11T00:08:37.602Z,0
2017-09-11T00:09:47.633Z,0
2017-09-11T00:10:57.904Z,0
2017-09-11T00:12:08.243Z,0
2017-09-11T00:13:18.651Z,0
2017-09-11T00:14:28.688Z,0
2017-09-11T00:15:39.043Z,0
2017-09-11T00:16:49.392Z,0
2017-09-11T00:17:59.424Z,0
2017-09-11T00:19:09.800Z,0
2017-09-11T00:20:19.826Z,0
2017-09-11T00:21:30.162Z,0
2017-09-11T00:22:40.519Z,0
2017-09-11T00:23:50.854Z,0
2017-09-11T00:25:01.190Z,0
2017-09-11T00:26:11.204Z,0
2017-09-11T00:27:21.544Z,0
2017-09-11T00:28:31.568Z,0
2017-09-11T00:29:41.915Z,0
2017-09-11T00:30:51.944Z,0
2017-09-11T00:32:02.279Z,0
2017-09-11T00:33:14.957Z,0
2017-09-11T00:34:25.301Z,0
2017-09-11T00:35:35.634Z,0
2017-09-11T00:36:45.334Z,0
2017-09-11T00:37:55.349Z,0
2017-09-11T00:39:05.698Z,0
2017-09-11T00:40:15.410Z,0
2017-09-11T00:41:25.747Z,0
2017-09-11T00:42:36.119Z,0
2017-09-11T00:43:46.461Z,0
2017-09-11T00:44:56.477Z,0
2017-09-11T00:46:07.969Z,0
2017-09-11T00:47:18.313Z,0
2017-09-11T00:48:28.665Z,0
2017-09-11T00:49:38.674Z,0
2017-09-11T00:50:49.713Z,0
2017-09-11T00:52:00.064Z,0
2017-09-11T00:53:12.659Z,0
2017-09-11T00:54:23.005Z,0
2017-09-11T00:55:33.345Z,0
2017-09-11T00:56:44.830Z,0
2017-09-11T00:57:55.083Z,0
2017-09-11T00:59:06.129Z,0
2017-09-11T01:00:16.209Z,0
2017-09-11T01:01:26.242Z,0
2017-09-11T01:02:36.260Z,0
2017-09-11T01:03:46.600Z,0
2017-09-11T01:04:58.279Z,0
2017-09-11T01:06:08.670Z,0
2017-09-11T01:07:18.997Z,0
2017-09-11T01:08:28.693Z,0
2017-09-11T01:09:39.281Z,0
2017-09-11T01:10:52.756Z,0
2017-09-11T01:12:03.105Z,0
2017-09-11T01:13:13.451Z,0
2017-09-11T01:14:23.788Z,0
2017-09-11T01:15:34.135Z,0
2017-09-11T01:16:44.475Z,0
2017-09-11T01:17:54.819Z,0
2017-09-11T01:19:04.529Z,0
2017-09-11T01:20:14.242Z,0
2017-09-11T01:21:24.269Z,0
2017-09-11T01:22:34.619Z,0
2017-09-11T01:23:44.952Z,0
2017-09-11T01:24:55.294Z,0
2017-09-11T01:26:05.629Z,0
2017-09-11T01:27:15.958Z,0
2017-09-11T01:28:26.024Z,0
2017-09-11T01:29:36.352Z,0
2017-09-11T01:30:46.374Z,0
2017-09-11T01:31:56.744Z,0
2017-09-11T01:33:07.315Z,0
2017-09-11T01:34:17.351Z,0
2017-09-11T01:35:27.381Z,0
2017-09-11T01:36:37.411Z,0
2017-09-11T01:37:47.429Z,0
2017-09-11T01:38:57.786Z,0
2017-09-11T01:40:08.122Z,0
2017-09-11T01:41:18.198Z,0
2017-09-11T01:42:28.532Z,0
2017-09-11T01:43:38.900Z,0
2017-09-11T01:44:49.243Z,0
2017-09-11T01:45:58.951Z,0
2017-09-11T01:47:09.296Z,0
2017-09-11T01:48:19.625Z,0
2017-09-11T01:49:29.966Z,0
2017-09-11T01:50:40.307Z,0
2017-09-11T01:51:50.323Z,0
2017-09-11T01:53:00.665Z,0
2017-09-11T01:54:10.693Z,0
2017-09-11T01:55:20.730Z,0
2017-09-11T01:56:31.076Z,0
2017-09-11T01:57:42.542Z,0
2017-09-11T01:58:52.869Z,0
2017-09-11T02:00:03.211Z,0
2017-09-11T02:01:13.237Z,0
2017-09-11T02:02:23.581Z,0
2017-09-11T02:03:34.916Z,0
2017-09-11T02:04:45.253Z,0
2017-09-11T02:05:55.594Z,0
2017-09-11T02:07:05.932Z,0
2017-09-11T02:08:15.960Z,0
2017-09-11T02:09:26.305Z,0
2017-09-11T02:10:36.342Z,0
2017-09-11T02:11:46.373Z,0
2017-09-11T02:12:56.715Z,0
2017-09-11T02:14:06.752Z,0
2017-09-11T02:15:16.784Z,0
2017-09-11T02:16:26.540Z,0
2017-09-11T02:17:36.248Z,0
2017-09-11T02:18:46.595Z,0
2017-09-11T02:19:56.948Z,0
2017-09-11T02:21:07.512Z,0
2017-09-11T02:22:17.855Z,0
2017-09-11T02:23:28.186Z,0
2017-09-11T02:24:38.213Z,0
2017-09-11T02:25:48.552Z,0
2017-09-11T02:26:58.582Z,0
2017-09-11T02:28:08.343Z,0
2017-09-11T02:29:18.690Z,0
2017-09-11T02:30:29.018Z,0
2017-09-11T02:31:39.376Z,0
2017-09-11T02:32:49.731Z,0
2017-09-11T02:34:00.111Z,0
2017-09-11T02:35:10.458Z,0
2017-09-11T02:36:20.167Z,0
2017-09-11T02:37:29.874Z,0
2017-09-11T02:38:40.214Z,0
2017-09-11T02:39:50.283Z,0
2017-09-11T02:41:00.633Z,0
2017-09-11T02:42:10.656Z,0
2017-09-11T02:43:21.851Z,0
2017-09-11T02:44:31.881Z,0
2017-09-11T02:45:42.250Z,0
2017-09-11T02:46:52.584Z,0
2017-09-11T02:48:02.924Z,0
2017-09-11T02:49:12.635Z,0
2017-09-11T02:50:22.650Z,0
2017-09-11T02:51:33.024Z,0
2017-09-11T02:52:43.040Z,0
2017-09-11T02:53:53.593Z,0
2017-09-11T02:55:03.940Z,0
2017-09-11T02:56:14.310Z,0
2017-09-11T02:57:25.049Z,0
2017-09-11T02:58:36.840Z,0
2017-09-11T02:59:47.201Z,0
2017-09-11T03:00:57.551Z,0
2017-09-11T03:02:07.573Z,0
2017-09-11T03:34:12.789Z,0
2017-09-11T03:35:22.481Z,0
2017-09-11T03:36:32.488Z,0
2017-09-11T03:37:42.833Z,0
2017-09-11T03:38:53.165Z,0
2017-09-11T03:40:03.523Z,0
2017-09-11T03:41:13.866Z,0
2017-09-11T03:42:23.891Z,0
2017-09-11T03:43:34.236Z,0
2017-09-11T03:44:44.576Z,0
2017-09-11T03:45:54.917Z,0
2017-09-11T03:47:04.988Z,0
2017-09-11T03:48:15.332Z,0
2017-09-11T03:49:25.673Z,0
2017-09-11T03:50:36.034Z,0
2017-09-11T03:51:45.475Z,0
2017-09-11T03:52:55.817Z,0
2017-09-11T03:54:06.146Z,0
2017-09-11T03:55:16.491Z,0
2017-09-11T03:56:26.513Z,4
2017-09-11T03:57:36.269Z,4
2017-09-11T03:58:46.648Z,0
2017-09-11T03:59:56.677Z,0
2017-09-11T04:01:07.024Z,4
2017-09-11T04:02:17.444Z,0
2017-09-11T04:03:27.802Z,4
2017-09-11T04:04:37.833Z,4
2017-09-11T04:05:48.166Z,8
2017-09-11T04:06:59.363Z,8
2017-09-11T04:08:09.736Z,8
2017-09-11T04:09:20.143Z,12
2017-09-11T04:10:30.502Z,16
2017-09-11T04:11:40.547Z,16
2017-09-11T04:12:50.894Z,20
2017-09-11T04:14:01.229Z,20
2017-09-11T04:15:11.247Z,24
2017-09-11T04:16:21.266Z,28
2017-09-11T04:17:33.625Z,40
2017-09-11T04:18:43.986Z,40
2017-09-11T04:19:54.010Z,48
2017-09-11T04:21:04.344Z,52
2017-09-11T04:22:14.685Z,64
2017-09-11T04:23:24.716Z,72
2017-09-11T04:24:35.064Z,84
2017-09-11T04:25:45.421Z,96
2017-09-11T04:26:55.815Z,108
2017-09-11T04:28:05.874Z,128
2017-09-11T04:29:16.213Z,144
2017-09-11T04:30:26.560Z,168
2017-09-11T04:31:36.586Z,184
2017-09-11T04:32:46.926Z,208
2017-09-11T04:33:57.254Z,232
2017-09-11T04:35:07.591Z,268
2017-09-11T04:36:17.617Z,304
2017-09-11T04:37:27.955Z,344
2017-09-11T04:38:38.304Z,380
2017-09-11T04:39:48.657Z,416
2017-09-11T04:40:59.004Z,452
2017-09-11T04:42:09.044Z,492
2017-09-11T04:43:19.062Z,544
2017-09-11T04:44:29.459Z,616
2017-09-11T04:45:39.181Z,660
2017-09-11T04:46:49.199Z,684
2017-09-11T04:47:59.537Z,712
2017-09-11T04:49:09.891Z,816
2017-09-11T04:50:20.294Z,1044
2017-09-11T04:51:31.597Z,1084
2017-09-11T04:52:41.954Z,1116
2017-09-11T04:53:52.279Z,1128
2017-09-11T04:55:02.617Z,1092
2017-09-11T04:56:13.012Z,1076
2017-09-11T04:57:23.368Z,1084
2017-09-11T04:58:33.707Z,1084
2017-09-11T04:59:44.040Z,1084
2017-09-11T05:00:54.381Z,1060
2017-09-11T05:02:04.767Z,1068
2017-09-11T05:03:15.098Z,1076
2017-09-11T05:04:25.125Z,1184
2017-09-11T05:05:35.147Z,1360
2017-09-11T05:06:45.490Z,1432
2017-09-11T05:07:55.825Z,1456
2017-09-11T05:09:06.171Z,1348
2017-09-11T05:10:16.503Z,1420
2017-09-11T05:11:26.531Z,1412
2017-09-11T05:12:36.868Z,1392
2017-09-11T05:13:47.412Z,1352
2017-09-11T05:14:57.442Z,1352
2017-09-11T05:16:07.799Z,1296
2017-09-11T05:17:18.150Z,1248
2017-09-11T05:18:28.485Z,1244
2017-09-11T05:19:38.502Z,1268
2017-09-11T05:20:50.014Z,1348
2017-09-11T05:22:01.661Z,1420
2017-09-11T05:23:11.373Z,1436
2017-09-11T05:24:21.410Z,1420
2017-09-11T05:25:31.743Z,1420
2017-09-11T05:26:43.974Z,1424
2017-09-11T05:27:54.311Z,1444
2017-09-11T05:29:04.662Z,1480
2017-09-11T05:30:15.004Z,1540
2017-09-11T05:31:25.350Z,1660
2017-09-11T05:32:35.698Z,1804
2017-09-11T05:33:46.043Z,1924
2017-09-11T05:34:56.415Z,2016
2017-09-11T05:36:06.773Z,2048
2017-09-11T05:37:17.129Z,2036
2017-09-11T05:38:27.159Z,2052
2017-09-11T05:39:37.176Z,2136
2017-09-11T05:40:47.535Z,2208
2017-09-11T05:41:57.875Z,2280
2017-09-11T05:43:08.208Z,2364
2017-09-11T05:44:18.563Z,2412
2017-09-11T05:45:28.897Z,2412
2017-09-11T05:46:39.128Z,2404
2017-09-11T05:47:49.482Z,2352
2017-09-11T05:48:59.819Z,2208
2017-09-11T05:50:11.312Z,2060
2017-09-11T05:51:21.034Z,1944
2017-09-11T05:52:31.053Z,1840
2017-09-11T05:53:41.082Z,1740
2017-09-11T05:54:51.494Z,1648
2017-09-11T05:56:01.848Z,1580
2017-09-11T05:57:12.192Z,1536
2017-09-11T05:58:22.982Z,1528
2017-09-11T05:59:33.809Z,1548
2017-09-11T06:00:43.829Z,1564
2017-09-11T06:01:54.182Z,1556
2017-09-11T06:03:04.241Z,1528
2017-09-11T06:04:14.590Z,1492
2017-09-11T06:05:25.206Z,1484
2017-09-11T06:06:35.605Z,1524
2017-09-11T06:07:45.643Z,1604
2017-09-11T06:08:55.978Z,1696
2017-09-11T06:10:06.327Z,1784
2017-09-11T06:11:16.374Z,1892
2017-09-11T06:12:26.728Z,2024
2017-09-11T06:13:37.054Z,2156
2017-09-11T06:14:46.772Z,2300
2017-09-11T06:15:56.806Z,2376
2017-09-11T06:17:06.838Z,2440
2017-09-11T06:18:17.226Z,2516
2017-09-11T06:19:27.261Z,2580
2017-09-11T06:20:37.594Z,2524
2017-09-11T06:21:47.616Z,2492
2017-09-11T06:22:57.975Z,2580
2017-09-11T06:24:08.021Z,2596
2017-09-11T06:25:17.733Z,2428
2017-09-11T06:26:28.088Z,2308
2017-09-11T06:27:39.083Z,2356
2017-09-11T06:28:49.414Z,2576
2017-09-11T06:29:59.740Z,3288
2017-09-11T06:31:10.082Z,3716
2017-09-11T06:32:21.259Z,3872
2017-09-11T06:33:31.611Z,4224
2017-09-11T06:34:41.643Z,4368
2017-09-11T06:35:52.019Z,4108
2017-09-11T06:37:02.035Z,3968
2017-09-11T06:38:12.383Z,3884
2017-09-11T06:39:22.732Z,3792
2017-09-11T06:40:33.072Z,3768
2017-09-11T06:41:57.992Z,3792
2017-09-11T06:43:08.321Z,3820
2017-09-11T06:44:18.684Z,4052
2017-09-11T06:45:29.028Z,4228
2017-09-11T06:46:39.370Z,4320
2017-09-11T06:47:49.762Z,4480
2017-09-11T06:48:59.779Z,4680
2017-09-11T06:50:09.823Z,4680
2017-09-11T06:51:19.854Z,4796
2017-09-11T06:52:32.103Z,5404
2017-09-11T06:53:42.457Z,5224
2017-09-11T06:54:52.474Z,5008
2017-09-11T06:56:03.923Z,4380
2017-09-11T06:57:13.970Z,4100
2017-09-11T06:58:24.312Z,3764
2017-09-11T06:59:34.004Z,3628
2017-09-11T07:00:44.361Z,3904
2017-09-11T07:01:54.722Z,4220
2017-09-11T07:03:05.093Z,4408
2017-09-11T07:04:15.450Z,4792
2017-09-11T07:05:25.167Z,4224
2017-09-11T07:06:35.505Z,3916
2017-09-11T07:07:45.857Z,3740
2017-09-11T07:08:56.212Z,3736
2017-09-11T07:10:06.240Z,3884
2017-09-11T07:11:16.583Z,3480
2017-09-11T07:12:26.937Z,3052
2017-09-11T07:13:36.986Z,2844
2017-09-11T07:14:47.347Z,2900
2017-09-11T07:15:57.704Z,3136
2017-09-11T07:17:07.752Z,3224
2017-09-11T07:18:18.112Z,3184
2017-09-11T07:19:27.838Z,3340
2017-09-11T07:20:38.186Z,3652
2017-09-11T07:21:48.537Z,4016
2017-09-11T07:22:58.891Z,4320
2017-09-11T07:24:09.276Z,4324
2017-09-11T07:25:19.634Z,5652
2017-09-11T07:26:29.972Z,6544
2017-09-11T07:27:40.317Z,6732
2017-09-11T07:28:50.609Z,6124
2017-09-11T07:30:00.940Z,5880
2017-09-11T07:31:10.966Z,5988
2017-09-11T07:32:21.311Z,5528
2017-09-11T07:33:31.658Z,5824
2017-09-11T07:34:41.711Z,5212
2017-09-11T07:35:52.048Z,5196
2017-09-11T07:37:02.400Z,5076
2017-09-11T07:38:12.754Z,5300
2017-09-11T07:39:23.109Z,5432
2017-09-11T07:40:37.262Z,5632
2017-09-11T07:41:47.284Z,6020
2017-09-11T07:42:57.324Z,6288
2017-09-11T07:44:07.666Z,6548
2017-09-11T07:45:18.006Z,6912
2017-09-11T07:46:28.340Z,7412
2017-09-11T07:47:38.381Z,7180
2017-09-11T07:48:48.455Z,6368
2017-09-11T07:49:58.795Z,6540
2017-09-11T07:51:08.818Z,6332
2017-09-11T07:52:18.548Z,6328
2017-09-11T07:53:28.570Z,7296
2017-09-11T07:54:38.917Z,7012
2017-09-11T07:55:48.953Z,5960
2017-09-11T07:56:59.299Z,6812
2017-09-11T07:58:23.967Z,5948
2017-09-11T07:59:34.300Z,6476
2017-09-11T08:00:45.641Z,7024
2017-09-11T08:01:56.030Z,6116
2017-09-11T08:03:06.068Z,5216
2017-09-11T08:04:16.420Z,4212
2017-09-11T08:05:26.443Z,3600
2017-09-11T08:06:36.479Z,3304
2017-09-11T08:07:46.853Z,3200
2017-09-11T08:08:56.901Z,3268
2017-09-11T08:10:07.342Z,3416
2017-09-11T08:11:17.372Z,3588
2017-09-11T08:12:27.746Z,4068
2017-09-11T08:13:38.110Z,4804
2017-09-11T08:14:48.463Z,5812
2017-09-11T08:15:58.878Z,6932
2017-09-11T08:17:09.267Z,7844
2017-09-11T08:18:19.607Z,7992
2017-09-11T08:19:29.626Z,8180
2017-09-11T08:20:41.343Z,8804
2017-09-11T08:21:51.702Z,8800
2017-09-11T08:23:04.126Z,8764
2017-09-11T08:24:14.158Z,8700
2017-09-11T08:25:24.541Z,8804
2017-09-11T08:26:34.906Z,8076
2017-09-11T08:27:44.948Z,7808
2017-09-11T08:28:55.295Z,7612
2017-09-11T08:30:05.650Z,7760
2017-09-11T08:31:16.008Z,7100
2017-09-11T08:32:26.030Z,6620
2017-09-11T08:33:36.393Z,6768
2017-09-11T08:34:46.756Z,6520
2017-09-11T08:35:56.491Z,5904
2017-09-11T08:37:07.890Z,5208
2017-09-11T08:38:17.927Z,5100
2017-09-11T08:39:28.011Z,4716
2017-09-11T08:40:38.043Z,4676
2017-09-11T08:41:48.393Z,4700
2017-09-11T08:42:58.746Z,4892
2017-09-11T08:44:09.090Z,5008
2017-09-11T08:45:19.460Z,5032
2017-09-11T08:46:29.832Z,5200
2017-09-11T08:47:40.194Z,5224
2017-09-11T08:48:52.522Z,5096
2017-09-11T08:50:02.897Z,4928
2017-09-11T08:51:12.936Z,5008
2017-09-11T08:52:23.290Z,5436
2017-09-11T08:53:33.657Z,6056
2017-09-11T08:54:43.694Z,6580
2017-09-11T08:55:54.064Z,6608
2017-09-11T08:57:04.458Z,6792
2017-09-11T08:58:14.802Z,6776
2017-09-11T08:59:24.875Z,6764
2017-09-11T09:00:35.230Z,6344
2017-09-11T09:01:45.371Z,6012
2017-09-11T09:02:55.764Z,5664
2017-09-11T09:04:08.351Z,5500
2017-09-11T09:05:18.733Z,5380
2017-09-11T09:06:28.766Z,5220
2017-09-11T09:07:38.818Z,5136
2017-09-11T09:08:49.195Z,5036
2017-09-11T09:10:01.417Z,4932
2017-09-11T09:11:11.480Z,4812
2017-09-11T09:12:21.558Z,4704
2017-09-11T09:13:31.965Z,4436
2017-09-11T09:14:42.058Z,4288
2017-09-11T09:15:54.734Z,4344
2017-09-11T09:17:05.090Z,4380
2017-09-11T09:18:15.456Z,4516
2017-09-11T09:19:25.546Z,4584
2017-09-11T09:20:35.324Z,4696
2017-09-11T09:21:45.693Z,4892
2017-09-11T09:22:55.975Z,5128
2017-09-11T09:24:06.389Z,5180
2017-09-11T09:25:16.440Z,5072
2017-09-11T09:26:26.801Z,5012
2017-09-11T09:27:37.173Z,5076
2017-09-11T09:28:47.384Z,5228
2017-09-11T09:29:57.546Z,5600
2017-09-11T09:31:10.423Z,5956
2017-09-11T09:32:24.456Z,6372
2017-09-11T09:33:35.203Z,6472
2017-09-11T09:34:45.584Z,6128
2017-09-11T09:35:56.024Z,5972
2017-09-11T09:37:06.398Z,5916
2017-09-11T09:38:16.793Z,5864
2017-09-11T09:39:27.158Z,5920
2017-09-11T09:40:37.520Z,6000
2017-09-11T09:41:47.889Z,6008
2017-09-11T09:42:58.289Z,6104
2017-09-11T09:44:08.371Z,6336
2017-09-11T09:45:18.753Z,6592
2017-09-11T09:46:28.802Z,6852
2017-09-11T09:47:39.238Z,7084
2017-09-11T09:48:49.623Z,7128
2017-09-11T09:50:00.020Z,7088
2017-09-11T09:51:12.165Z,7032
2017-09-11T09:52:22.549Z,6968
2017-09-11T09:53:32.323Z,6792
2017-09-11T09:54:42.420Z,6648
2017-09-11T09:55:52.820Z,6532
2017-09-11T09:57:03.205Z,6484
2017-09-11T09:58:13.289Z,6556
2017-09-11T09:59:23.666Z,6620
2017-09-11T10:00:33.711Z,6500
2017-09-11T10:01:44.108Z,6352
2017-09-11T10:02:54.557Z,6300
2017-09-11T10:04:04.623Z,6212
2017-09-11T10:05:15.012Z,6040
2017-09-11T10:06:25.398Z,5892
2017-09-11T10:07:35.774Z,5836
2017-09-11T10:08:46.227Z,5748
2017-09-11T10:09:55.977Z,5680
2017-09-11T10:11:06.359Z,5568
2017-09-11T10:12:16.420Z,5496
2017-09-11T10:13:26.601Z,5408
2017-09-11T10:14:36.698Z,5252
2017-09-11T10:15:46.736Z,5052
2017-09-11T10:16:57.135Z,4832
2017-09-11T10:18:07.547Z,4576
2017-09-11T10:19:17.938Z,4320
2017-09-11T10:20:28.378Z,4040
2017-09-11T10:21:38.785Z,3812
2017-09-11T10:22:49.170Z,3672
2017-09-11T10:23:59.552Z,3408
2017-09-11T10:25:09.956Z,2984
2017-09-11T10:26:20.392Z,2720
2017-09-11T10:27:30.774Z,2600
2017-09-11T10:28:41.619Z,2424
2017-09-11T10:29:52.032Z,2304
2017-09-11T10:31:02.425Z,2208
2017-09-11T10:32:12.856Z,2096
2017-09-11T10:33:23.238Z,2008
2017-09-11T10:34:33.608Z,1984
2017-09-11T10:35:43.986Z,2036
2017-09-11T10:36:54.049Z,2120
2017-09-11T10:38:04.484Z,2236
2017-09-11T10:39:14.894Z,2244
2017-09-11T10:40:25.267Z,2112
2017-09-11T10:41:35.315Z,1896
2017-09-11T10:42:45.671Z,1648
2017-09-11T10:43:56.100Z,1564
2017-09-11T10:45:06.486Z,1640
2017-09-11T10:46:16.860Z,1800
2017-09-11T10:47:27.247Z,1976
2017-09-11T10:48:37.626Z,2152
2017-09-11T10:49:48.016Z,2336
2017-09-11T10:50:58.416Z,2496
2017-09-11T10:52:08.813Z,2568
2017-09-11T10:53:19.175Z,2572
2017-09-11T10:54:29.554Z,2716
2017-09-11T10:55:39.669Z,3124
2017-09-11T10:56:50.024Z,3672
2017-09-11T10:58:00.060Z,4132
2017-09-11T10:59:10.558Z,4408
2017-09-11T11:00:20.936Z,4608
2017-09-11T11:01:31.035Z,4804
2017-09-11T11:02:41.408Z,4984
2017-09-11T11:03:51.779Z,5020
2017-09-11T11:05:02.363Z,4968
2017-09-11T11:06:12.708Z,4804
2017-09-11T11:07:23.093Z,4572
2017-09-11T11:08:33.143Z,4456
2017-09-11T11:09:43.506Z,4420
2017-09-11T11:10:53.557Z,4568
2017-09-11T11:12:03.929Z,4668
2017-09-11T11:13:14.275Z,4616
2017-09-11T11:14:24.307Z,4576
2017-09-11T11:15:34.675Z,4172
2017-09-11T11:16:45.025Z,3968
2017-09-11T11:17:55.372Z,3816
2017-09-11T11:19:05.466Z,3692
2017-09-11T11:20:15.826Z,3652
2017-09-11T11:21:26.193Z,3552
2017-09-11T11:22:36.579Z,3508
2017-09-11T11:23:46.611Z,3420
2017-09-11T11:24:56.970Z,3260
2017-09-11T11:26:07.018Z,3312
2017-09-11T11:27:17.368Z,3060
2017-09-11T11:28:27.421Z,2800
2017-09-11T11:29:37.162Z,2500
2017-09-11T11:30:47.564Z,2168
2017-09-11T11:31:57.921Z,1940
2017-09-11T11:33:08.271Z,1948
2017-09-11T11:34:18.618Z,2096
2017-09-11T11:35:28.680Z,2184
2017-09-11T11:36:39.045Z,2120
2017-09-11T11:37:49.278Z,1836
2017-09-11T11:38:59.645Z,1428
2017-09-11T11:40:10.010Z,1184
2017-09-11T11:41:20.354Z,1048
2017-09-11T11:42:30.761Z,972
2017-09-11T11:43:41.119Z,1036
2017-09-11T11:44:51.155Z,1156
2017-09-11T11:46:01.520Z,1264
2017-09-11T11:47:11.582Z,1400
2017-09-11T11:48:21.940Z,1744
2017-09-11T11:49:32.317Z,2232
2017-09-11T11:50:42.685Z,2620
2017-09-11T11:51:52.399Z,2896
2017-09-11T11:53:02.122Z,3156
2017-09-11T11:54:12.489Z,3392
2017-09-11T11:55:22.836Z,3604
2017-09-11T11:56:33.200Z,3688
2017-09-11T11:57:43.570Z,3800
2017-09-11T11:58:53.931Z,3948
2017-09-11T12:00:04.331Z,4008
2017-09-11T12:01:14.376Z,3996
2017-09-11T12:02:24.727Z,3848
2017-09-11T12:03:34.771Z,3708
2017-09-11T12:04:45.136Z,3632
2017-09-11T12:05:55.551Z,3684
2017-09-11T12:07:05.910Z,3588
2017-09-11T12:08:16.273Z,3460
2017-09-11T12:09:26.630Z,3312
2017-09-11T12:10:37.011Z,3136
2017-09-11T12:11:47.053Z,2996
2017-09-11T12:12:57.393Z,2844
2017-09-11T12:14:08.992Z,2932
2017-09-11T12:15:19.037Z,3200
2017-09-11T12:16:29.069Z,3436
2017-09-11T12:17:39.512Z,3564
2017-09-11T12:18:49.868Z,3596
2017-09-11T12:19:59.918Z,3632
2017-09-11T12:21:10.300Z,3688
2017-09-11T12:22:20.647Z,3664
2017-09-11T12:23:31.019Z,3568
2017-09-11T12:24:41.374Z,3460
2017-09-11T12:25:51.725Z,3380
2017-09-11T12:27:02.079Z,3332
2017-09-11T12:28:12.116Z,2964
2017-09-11T12:29:23.972Z,2472
2017-09-11T12:30:34.037Z,2228
2017-09-11T12:31:44.071Z,2216
2017-09-11T12:32:54.474Z,2404
2017-09-11T12:34:04.963Z,2552
2017-09-11T12:35:15.041Z,2472
2017-09-11T12:36:25.489Z,2248
2017-09-11T12:37:35.541Z,2052
2017-09-11T12:38:45.273Z,1884
2017-09-11T12:39:55.317Z,1952
2017-09-11T12:41:05.784Z,2152
2017-09-11T12:42:16.144Z,2308
2017-09-11T12:43:26.508Z,2460
2017-09-11T12:44:36.930Z,2468
2017-09-11T12:45:47.297Z,2348
2017-09-11T12:46:57.847Z,2292
2017-09-11T12:48:08.238Z,2508
2017-09-11T12:49:18.609Z,2940
2017-09-11T12:50:28.965Z,3468
2017-09-11T12:51:39.438Z,3596
2017-09-11T12:52:49.801Z,3464
2017-09-11T12:53:59.937Z,2968
2017-09-11T12:55:09.960Z,2868
2017-09-11T12:56:20.403Z,2808
2017-09-11T12:57:30.430Z,2680
2017-09-11T12:58:40.908Z,2752
2017-09-11T12:59:51.273Z,2932
2017-09-11T13:01:01.700Z,2884
2017-09-11T13:02:12.065Z,2712
2017-09-11T13:03:22.428Z,2556
2017-09-11T13:04:32.830Z,2564
2017-09-11T13:05:42.984Z,2488
2017-09-11T13:06:53.368Z,2140
2017-09-11T13:08:03.712Z,1652
2017-09-11T13:09:14.183Z,1416
2017-09-11T13:10:24.358Z,1244
2017-09-11T13:11:34.723Z,1108
2017-09-11T13:12:48.144Z,1072
2017-09-11T13:13:58.519Z,1064
2017-09-11T13:15:08.664Z,1056
2017-09-11T13:16:18.915Z,1060
2017-09-11T13:17:29.334Z,1052
2017-09-11T13:18:39.692Z,916
2017-09-11T13:19:50.028Z,888
2017-09-11T13:20:59.755Z,988
2017-09-11T13:22:10.133Z,1004
2017-09-11T13:23:20.514Z,1040
2017-09-11T13:24:30.522Z,1168
2017-09-11T13:25:41.115Z,1344
2017-09-11T13:26:51.139Z,1412
2017-09-11T13:28:01.494Z,1384
2017-09-11T13:29:11.514Z,1324
2017-09-11T13:30:21.885Z,1288
2017-09-11T13:31:31.904Z,1308
2017-09-11T13:32:42.251Z,1304
2017-09-11T13:33:52.646Z,1260
2017-09-11T13:35:02.998Z,1248
2017-09-11T13:36:13.045Z,1280
2017-09-11T13:37:23.383Z,1312
2017-09-11T13:38:33.746Z,1360
2017-09-11T13:39:43.836Z,1420
2017-09-11T13:40:54.598Z,1452
2017-09-11T13:42:04.949Z,1504
2017-09-11T13:43:14.982Z,1600
2017-09-11T13:44:27.307Z,1692
2017-09-11T13:45:37.668Z,1780
2017-09-11T13:46:48.766Z,1856
2017-09-11T13:47:58.844Z,1984
2017-09-11T13:49:08.906Z,2120
2017-09-11T13:50:20.714Z,2192
2017-09-11T13:51:31.131Z,2244
2017-09-11T13:52:41.491Z,2244
2017-09-11T13:53:51.856Z,2168
2017-09-11T13:55:01.913Z,2160
2017-09-11T13:56:12.262Z,2092
2017-09-11T13:57:22.636Z,1944
2017-09-11T13:58:32.703Z,1896
2017-09-11T13:59:44.021Z,2004
2017-09-11T14:00:56.433Z,2164
2017-09-11T14:02:06.487Z,2268
2017-09-11T14:03:16.856Z,2240
2017-09-11T14:04:27.197Z,2336
2017-09-11T14:05:37.581Z,2576
2017-09-11T14:06:47.987Z,2424
2017-09-11T14:07:58.333Z,2044
2017-09-11T14:09:08.757Z,1684
2017-09-11T14:10:19.431Z,1476
2017-09-11T14:11:29.779Z,1448
2017-09-11T14:12:40.140Z,1388
2017-09-11T14:13:50.499Z,1232
2017-09-11T14:15:00.941Z,1092
2017-09-11T14:16:11.309Z,1012
2017-09-11T14:17:21.358Z,936
2017-09-11T14:18:31.720Z,940
2017-09-11T14:19:42.070Z,1052
2017-09-11T14:20:52.471Z,1120
2017-09-11T14:22:02.837Z,1112
2017-09-11T14:23:13.198Z,1064
2017-09-11T14:24:23.569Z,972
2017-09-11T14:25:33.615Z,900
2017-09-11T14:26:44.030Z,996
2017-09-11T14:27:54.408Z,1320
2017-09-11T14:29:04.787Z,1536
2017-09-11T14:30:15.170Z,1412
2017-09-11T14:31:25.215Z,1020
2017-09-11T14:32:35.665Z,808
2017-09-11T14:33:45.715Z,892
2017-09-11T14:34:56.078Z,1116
2017-09-11T14:36:06.445Z,1280
2017-09-11T14:37:16.827Z,1264
2017-09-11T14:38:27.234Z,1336
2017-09-11T14:39:37.598Z,1624
2017-09-11T14:40:48.192Z,1584
2017-09-11T14:41:58.530Z,1248
2017-09-11T14:43:08.573Z,972
2017-09-11T14:44:18.922Z,988
2017-09-11T14:45:28.947Z,1192
2017-09-11T14:46:39.326Z,1452
2017-09-11T14:47:49.692Z,1552
2017-09-11T14:49:00.039Z,1400
2017-09-11T14:50:10.445Z,1176
2017-09-11T14:51:20.793Z,1112
2017-09-11T14:52:31.141Z,1216
2017-09-11T14:53:41.484Z,1424
2017-09-11T14:54:51.513Z,1544
2017-09-11T14:56:01.865Z,1560
2017-09-11T14:57:12.213Z,1472
2017-09-11T14:58:22.618Z,1376
2017-09-11T14:59:32.666Z,1284
2017-09-11T15:00:43.048Z,1292
2017-09-11T15:01:53.079Z,1372
2017-09-11T15:03:03.126Z,1420
2017-09-11T15:04:13.541Z,1416
2017-09-11T15:05:23.278Z,1292
2017-09-11T15:06:34.733Z,1136
2017-09-11T15:07:45.117Z,1016
2017-09-11T15:08:55.463Z,900
2017-09-11T15:10:05.873Z,828
2017-09-11T15:11:16.246Z,812
2017-09-11T15:12:26.600Z,856
2017-09-11T15:13:37.124Z,884
2017-09-11T15:14:47.493Z,816
2017-09-11T15:15:57.876Z,772
2017-09-11T15:17:08.228Z,780
2017-09-11T15:18:18.269Z,800
2017-09-11T15:19:28.294Z,804
2017-09-11T15:20:38.338Z,788
2017-09-11T15:21:48.675Z,800
2017-09-11T15:22:59.012Z,836
2017-09-11T15:24:09.375Z,828
2017-09-11T15:25:19.742Z,776
2017-09-11T15:26:30.136Z,716
2017-09-11T15:27:40.487Z,704
2017-09-11T15:28:50.862Z,692
2017-09-11T15:30:01.215Z,704
2017-09-11T15:31:11.587Z,828
2017-09-11T15:32:21.926Z,904
2017-09-11T15:33:31.970Z,764
2017-09-11T15:34:42.034Z,636
2017-09-11T15:35:51.773Z,620
2017-09-11T15:37:02.147Z,612
2017-09-11T15:38:12.232Z,612
2017-09-11T15:39:22.366Z,624
2017-09-11T15:40:32.746Z,528
2017-09-11T15:41:42.814Z,528
2017-09-11T15:42:53.162Z,732
2017-09-11T15:44:03.202Z,784
2017-09-11T15:45:13.592Z,760
2017-09-11T15:46:23.958Z,920
2017-09-11T15:47:34.308Z,1100
2017-09-11T15:48:44.690Z,1128
2017-09-11T15:49:55.058Z,1064
2017-09-11T15:51:05.471Z,996
2017-09-11T15:52:15.822Z,996
2017-09-11T15:53:26.169Z,1036
2017-09-11T15:54:36.513Z,1000
2017-09-11T15:55:46.575Z,944
2017-09-11T15:56:56.924Z,904
2017-09-11T15:58:06.944Z,848
2017-09-11T15:59:16.968Z,764
2017-09-11T16:00:27.043Z,716
2017-09-11T16:01:37.398Z,696
2017-09-11T16:02:47.781Z,704
2017-09-11T16:03:58.126Z,732
2017-09-11T16:05:08.494Z,788
2017-09-11T16:06:18.850Z,792
2017-09-11T16:07:29.202Z,776
2017-09-11T16:08:39.556Z,732
2017-09-11T16:09:49.273Z,684
2017-09-11T16:10:59.643Z,640
2017-09-11T16:12:09.687Z,612
2017-09-11T16:13:20.040Z,588
2017-09-11T16:14:30.488Z,544
2017-09-11T16:15:40.540Z,512
2017-09-11T16:16:50.587Z,480
2017-09-11T16:18:00.958Z,456
2017-09-11T16:19:11.335Z,448
2017-09-11T16:20:21.361Z,440
2017-09-11T16:21:31.714Z,412
2017-09-11T16:22:42.067Z,388
2017-09-11T16:23:52.432Z,388
2017-09-11T16:25:02.802Z,400
2017-09-11T16:26:13.215Z,412
2017-09-11T16:27:23.611Z,440
2017-09-11T16:28:33.883Z,460
2017-09-11T16:29:43.913Z,436
2017-09-11T16:30:54.258Z,396
2017-09-11T16:32:04.593Z,388
2017-09-11T16:33:14.962Z,396
2017-09-11T16:34:25.003Z,396